sensor_id;sensor_type;location;lat;lon;timestamp;P1;durP1;ratioP1;P2;durP2;ratioP2
20861;SDS011;10591;52.532;13.348;2023-01-08T00:01:41;6.87;;;5.53;;
20861;SDS011;10591;52.532;13.348;2023-01-08T00:04:12;7.62;;;6.35;;
20861;SDS011;10591;52.532;13.348;2023-01-08T00:06:45;6.78;;;5.67;;
20861;SDS011;10591;52.532;13.348;2023-01-08T00:09:16;7.75;;;5.53;;
20861;SDS011;10591;52.532;13.348;2023-01-08T00:11:47;6.05;;;5.45;;
20861;SDS011;10591;52.532;13.348;2023-01-08T00:14:20;6.00;;;5.42;;
20861;SDS011;10591;52.532;13.348;2023-01-08T00:16:53;6.45;;;5.70;;
20861;SDS011;10591;52.532;13.348;2023-01-08T00:19:26;6.50;;;5.25;;
20861;SDS011;10591;52.532;13.348;2023-01-08T00:21:58;5.80;;;5.20;;
20861;SDS011;10591;52.532;13.348;2023-01-08T00:24:31;8.83;;;6.50;;
20861;SDS011;10591;52.532;13.348;2023-01-08T00:27:02;6.05;;;5.45;;
20861;SDS011;10591;52.532;13.348;2023-01-08T00:29:36;6.58;;;5.87;;
20861;SDS011;10591;52.532;13.348;2023-01-08T00:32:07;6.47;;;5.58;;
20861;SDS011;10591;52.532;13.348;2023-01-08T00:34:37;7.37;;;5.87;;
20861;SDS011;10591;52.532;13.348;2023-01-08T00:37:09;6.92;;;5.97;;
20861;SDS011;10591;52.532;13.348;2023-01-08T00:39:39;6.22;;;5.62;;
20861;SDS011;10591;52.532;13.348;2023-01-08T00:42:11;5.90;;;5.30;;
20861;SDS011;10591;52.532;13.348;2023-01-08T00:44:42;6.42;;;5.30;;
20861;SDS011;10591;52.532;13.348;2023-01-08T00:47:13;6.70;;;5.80;;
20861;SDS011;10591;52.532;13.348;2023-01-08T00:49:44;6.80;;;5.87;;
20861;SDS011;10591;52.532;13.348;2023-01-08T00:52:16;6.80;;;5.62;;
20861;SDS011;10591;52.532;13.348;2023-01-08T00:54:47;6.25;;;5.53;;
20861;SDS011;10591;52.532;13.348;2023-01-08T00:57:22;6.90;;;6.20;;
20861;SDS011;10591;52.532;13.348;2023-01-08T00:59:54;6.90;;;6.30;;
20861;SDS011;10591;52.532;13.348;2023-01-08T01:02:29;6.33;;;5.73;;
20861;SDS011;10591;52.532;13.348;2023-01-08T01:04:59;6.87;;;6.17;;
20861;SDS011;10591;52.532;13.348;2023-01-08T01:07:30;6.35;;;5.75;;
20861;SDS011;10591;52.532;13.348;2023-01-08T01:10:03;6.75;;;5.47;;
20861;SDS011;10591;52.532;13.348;2023-01-08T01:12:35;6.83;;;6.03;;
20861;SDS011;10591;52.532;13.348;2023-01-08T01:15:08;6.28;;;5.42;;
20861;SDS011;10591;52.532;13.348;2023-01-08T01:17:42;6.33;;;5.58;;
20861;SDS011;10591;52.532;13.348;2023-01-08T01:20:15;6.33;;;5.72;;
20861;SDS011;10591;52.532;13.348;2023-01-08T01:22:45;6.40;;;5.78;;
20861;SDS011;10591;52.532;13.348;2023-01-08T01:25:19;6.65;;;6.00;;
20861;SDS011;10591;52.532;13.348;2023-01-08T01:27:49;7.22;;;6.35;;
20861;SDS011;10591;52.532;13.348;2023-01-08T01:30:22;7.45;;;6.75;;
20861;SDS011;10591;52.532;13.348;2023-01-08T01:32:58;7.17;;;6.30;;
20861;SDS011;10591;52.532;13.348;2023-01-08T01:35:28;6.45;;;5.80;;
20861;SDS011;10591;52.532;13.348;2023-01-08T01:37:58;9.18;;;6.90;;
20861;SDS011;10591;52.532;13.348;2023-01-08T01:40:30;8.15;;;6.62;;
20861;SDS011;10591;52.532;13.348;2023-01-08T01:43:02;7.70;;;6.17;;
20861;SDS011;10591;52.532;13.348;2023-01-08T01:45:34;6.97;;;6.37;;
20861;SDS011;10591;52.532;13.348;2023-01-08T01:48:08;7.45;;;6.40;;
20861;SDS011;10591;52.532;13.348;2023-01-08T01:50:43;7.17;;;6.47;;
20861;SDS011;10591;52.532;13.348;2023-01-08T01:53:23;7.72;;;6.80;;
20861;SDS011;10591;52.532;13.348;2023-01-08T01:55:56;7.12;;;6.42;;
20861;SDS011;10591;52.532;13.348;2023-01-08T01:58:29;7.72;;;7.03;;
20861;SDS011;10591;52.532;13.348;2023-01-08T02:01:02;7.25;;;6.42;;
20861;SDS011;10591;52.532;13.348;2023-01-08T02:03:38;7.28;;;6.58;;
20861;SDS011;10591;52.532;13.348;2023-01-08T02:06:29;7.30;;;6.22;;
20861;SDS011;10591;52.532;13.348;2023-01-08T02:11:48;7.90;;;7.10;;
20861;SDS011;10591;52.532;13.348;2023-01-08T02:14:29;8.00;;;7.20;;
20861;SDS011;10591;52.532;13.348;2023-01-08T02:16:58;7.67;;;6.87;;
20861;SDS011;10591;52.532;13.348;2023-01-08T02:19:39;7.85;;;6.80;;
20861;SDS011;10591;52.532;13.348;2023-01-08T02:22:28;8.00;;;7.10;;
20861;SDS011;10591;52.532;13.348;2023-01-08T02:25:00;8.83;;;7.50;;
20861;SDS011;10591;52.532;13.348;2023-01-08T02:27:33;8.05;;;7.20;;
20861;SDS011;10591;52.532;13.348;2023-01-08T02:30:09;8.38;;;7.20;;
20861;SDS011;10591;52.532;13.348;2023-01-08T02:32:41;9.75;;;7.78;;
20861;SDS011;10591;52.532;13.348;2023-01-08T02:35:12;7.62;;;6.83;;
20861;SDS011;10591;52.532;13.348;2023-01-08T02:37:42;8.75;;;7.55;;
20861;SDS011;10591;52.532;13.348;2023-01-08T02:40:24;8.48;;;7.37;;
20861;SDS011;10591;52.532;13.348;2023-01-08T02:42:58;8.55;;;7.42;;
20861;SDS011;10591;52.532;13.348;2023-01-08T02:51:00;8.95;;;7.50;;
20861;SDS011;10591;52.532;13.348;2023-01-08T02:53:38;8.43;;;7.55;;
20861;SDS011;10591;52.532;13.348;2023-01-08T02:56:12;8.27;;;7.43;;
20861;SDS011;10591;52.532;13.348;2023-01-08T02:58:44;8.75;;;7.70;;
20861;SDS011;10591;52.532;13.348;2023-01-08T03:01:19;8.15;;;7.33;;
20861;SDS011;10591;52.532;13.348;2023-01-08T03:03:52;8.78;;;7.87;;
20861;SDS011;10591;52.532;13.348;2023-01-08T03:06:24;9.40;;;8.20;;
20861;SDS011;10591;52.532;13.348;2023-01-08T03:08:59;8.73;;;7.83;;
20861;SDS011;10591;52.532;13.348;2023-01-08T03:11:31;9.10;;;7.87;;
20861;SDS011;10591;52.532;13.348;2023-01-08T03:14:10;8.38;;;7.58;;
20861;SDS011;10591;52.532;13.348;2023-01-08T03:17:04;9.20;;;8.30;;
20861;SDS011;10591;52.532;13.348;2023-01-08T03:19:41;9.63;;;8.58;;
20861;SDS011;10591;52.532;13.348;2023-01-08T03:22:14;9.35;;;8.20;;
20861;SDS011;10591;52.532;13.348;2023-01-08T03:24:49;9.40;;;8.13;;
20861;SDS011;10591;52.532;13.348;2023-01-08T03:27:26;10.98;;;8.45;;
20861;SDS011;10591;52.532;13.348;2023-01-08T03:29:58;9.68;;;8.68;;
20861;SDS011;10591;52.532;13.348;2023-01-08T03:32:29;8.80;;;7.90;;
20861;SDS011;10591;52.532;13.348;2023-01-08T03:35:01;9.65;;;8.40;;
20861;SDS011;10591;52.532;13.348;2023-01-08T03:37:35;8.65;;;7.75;;
20861;SDS011;10591;52.532;13.348;2023-01-08T03:42:44;9.40;;;8.23;;
20861;SDS011;10591;52.532;13.348;2023-01-08T03:45:15;9.40;;;8.03;;
20861;SDS011;10591;52.532;13.348;2023-01-08T03:47:46;8.83;;;7.92;;
20861;SDS011;10591;52.532;13.348;2023-01-08T03:50:19;9.50;;;7.67;;
20861;SDS011;10591;52.532;13.348;2023-01-08T03:52:50;10.33;;;8.37;;
20861;SDS011;10591;52.532;13.348;2023-01-08T03:55:21;9.97;;;8.90;;
20861;SDS011;10591;52.532;13.348;2023-01-08T03:57:51;9.38;;;8.35;;
20861;SDS011;10591;52.532;13.348;2023-01-08T04:00:22;10.00;;;8.90;;
20861;SDS011;10591;52.532;13.348;2023-01-08T04:02:53;9.48;;;8.28;;
20861;SDS011;10591;52.532;13.348;2023-01-08T04:05:24;11.12;;;8.20;;
20861;SDS011;10591;52.532;13.348;2023-01-08T04:07:55;11.63;;;9.10;;
20861;SDS011;10591;52.532;13.348;2023-01-08T04:10:27;9.87;;;8.83;;
20861;SDS011;10591;52.532;13.348;2023-01-08T04:12:59;11.43;;;9.27;;
20861;SDS011;10591;52.532;13.348;2023-01-08T04:15:31;9.97;;;8.83;;
20861;SDS011;10591;52.532;13.348;2023-01-08T04:18:02;10.33;;;8.90;;
20861;SDS011;10591;52.532;13.348;2023-01-08T04:20:34;11.20;;;8.80;;
20861;SDS011;10591;52.532;13.348;2023-01-08T04:23:04;11.87;;;9.00;;
20861;SDS011;10591;52.532;13.348;2023-01-08T04:25:36;10.98;;;8.83;;
20861;SDS011;10591;52.532;13.348;2023-01-08T04:28:09;11.07;;;9.97;;
20861;SDS011;10591;52.532;13.348;2023-01-08T04:30:39;11.77;;;9.50;;
20861;SDS011;10591;52.532;13.348;2023-01-08T04:33:10;11.60;;;9.13;;
20861;SDS011;10591;52.532;13.348;2023-01-08T04:35:42;10.32;;;8.75;;
20861;SDS011;10591;52.532;13.348;2023-01-08T04:38:12;11.05;;;9.03;;
20861;SDS011;10591;52.532;13.348;2023-01-08T04:40:43;11.43;;;9.53;;
20861;SDS011;10591;52.532;13.348;2023-01-08T04:43:18;12.90;;;9.77;;
20861;SDS011;10591;52.532;13.348;2023-01-08T04:45:49;10.23;;;9.10;;
20861;SDS011;10591;52.532;13.348;2023-01-08T04:48:20;10.57;;;9.13;;
20861;SDS011;10591;52.532;13.348;2023-01-08T04:50:52;10.63;;;9.53;;
20861;SDS011;10591;52.532;13.348;2023-01-08T04:53:23;10.87;;;9.57;;
20861;SDS011;10591;52.532;13.348;2023-01-08T04:55:54;11.90;;;10.30;;
20861;SDS011;10591;52.532;13.348;2023-01-08T04:58:25;9.70;;;8.70;;
20861;SDS011;10591;52.532;13.348;2023-01-08T05:00:56;11.43;;;9.73;;
20861;SDS011;10591;52.532;13.348;2023-01-08T05:03:26;11.30;;;9.30;;
20861;SDS011;10591;52.532;13.348;2023-01-08T05:06:05;10.40;;;9.27;;
20861;SDS011;10591;52.532;13.348;2023-01-08T05:08:38;10.03;;;8.97;;
20861;SDS011;10591;52.532;13.348;2023-01-08T05:11:10;10.00;;;8.87;;
20861;SDS011;10591;52.532;13.348;2023-01-08T05:13:41;9.78;;;8.78;;
20861;SDS011;10591;52.532;13.348;2023-01-08T05:16:13;9.83;;;8.83;;
20861;SDS011;10591;52.532;13.348;2023-01-08T05:18:47;11.03;;;8.93;;
20861;SDS011;10591;52.532;13.348;2023-01-08T05:21:25;11.43;;;9.47;;
20861;SDS011;10591;52.532;13.348;2023-01-08T05:23:50;12.18;;;9.10;;
20861;SDS011;10591;52.532;13.348;2023-01-08T05:26:24;9.98;;;8.98;;
20861;SDS011;10591;52.532;13.348;2023-01-08T05:28:58;10.90;;;8.93;;
20861;SDS011;10591;52.532;13.348;2023-01-08T05:31:28;11.03;;;9.75;;
20861;SDS011;10591;52.532;13.348;2023-01-08T05:34:00;11.07;;;9.23;;
20861;SDS011;10591;52.532;13.348;2023-01-08T05:36:31;9.20;;;8.30;;
20861;SDS011;10591;52.532;13.348;2023-01-08T05:39:03;10.40;;;9.30;;
20861;SDS011;10591;52.532;13.348;2023-01-08T05:41:34;10.20;;;9.10;;
20861;SDS011;10591;52.532;13.348;2023-01-08T05:44:06;9.53;;;8.60;;
20861;SDS011;10591;52.532;13.348;2023-01-08T05:46:38;11.10;;;9.03;;
20861;SDS011;10591;52.532;13.348;2023-01-08T05:49:09;10.67;;;9.20;;
20861;SDS011;10591;52.532;13.348;2023-01-08T05:51:39;9.50;;;8.53;;
20861;SDS011;10591;52.532;13.348;2023-01-08T05:54:10;9.90;;;8.73;;
20861;SDS011;10591;52.532;13.348;2023-01-08T05:56:42;9.33;;;8.43;;
20861;SDS011;10591;52.532;13.348;2023-01-08T05:59:12;10.10;;;9.03;;
20861;SDS011;10591;52.532;13.348;2023-01-08T06:01:43;10.53;;;8.70;;
20861;SDS011;10591;52.532;13.348;2023-01-08T06:04:16;10.57;;;9.10;;
20861;SDS011;10591;52.532;13.348;2023-01-08T06:06:48;9.57;;;8.60;;
20861;SDS011;10591;52.532;13.348;2023-01-08T06:09:20;10.03;;;8.40;;
20861;SDS011;10591;52.532;13.348;2023-01-08T06:11:50;11.65;;;9.08;;
20861;SDS011;10591;52.532;13.348;2023-01-08T06:14:21;8.93;;;7.97;;
20861;SDS011;10591;52.532;13.348;2023-01-08T06:16:52;9.73;;;8.27;;
20861;SDS011;10591;52.532;13.348;2023-01-08T06:19:24;9.88;;;8.08;;
20861;SDS011;10591;52.532;13.348;2023-01-08T06:21:56;8.55;;;7.75;;
20861;SDS011;10591;52.532;13.348;2023-01-08T06:24:30;8.25;;;7.40;;
20861;SDS011;10591;52.532;13.348;2023-01-08T06:27:02;8.93;;;8.03;;
20861;SDS011;10591;52.532;13.348;2023-01-08T06:29:35;8.45;;;7.37;;
20861;SDS011;10591;52.532;13.348;2023-01-08T06:32:06;8.57;;;7.27;;
20861;SDS011;10591;52.532;13.348;2023-01-08T06:34:36;8.53;;;7.67;;
20861;SDS011;10591;52.532;13.348;2023-01-08T06:37:08;9.93;;;7.55;;
20861;SDS011;10591;52.532;13.348;2023-01-08T06:39:38;8.50;;;7.53;;
20861;SDS011;10591;52.532;13.348;2023-01-08T06:42:12;9.20;;;7.40;;
20861;SDS011;10591;52.532;13.348;2023-01-08T06:44:48;8.23;;;7.42;;
20861;SDS011;10591;52.532;13.348;2023-01-08T06:47:20;8.47;;;7.03;;
20861;SDS011;10591;52.532;13.348;2023-01-08T06:49:57;7.60;;;6.83;;
20861;SDS011;10591;52.532;13.348;2023-01-08T06:52:27;8.10;;;7.12;;
20861;SDS011;10591;52.532;13.348;2023-01-08T06:54:58;7.65;;;6.83;;
20861;SDS011;10591;52.532;13.348;2023-01-08T06:57:29;8.28;;;7.05;;
20861;SDS011;10591;52.532;13.348;2023-01-08T07:00:00;9.97;;;7.43;;
20861;SDS011;10591;52.532;13.348;2023-01-08T07:02:32;8.10;;;7.30;;
20861;SDS011;10591;52.532;13.348;2023-01-08T07:05:06;8.03;;;7.23;;
20861;SDS011;10591;52.532;13.348;2023-01-08T07:07:37;10.68;;;9.05;;
20861;SDS011;10591;52.532;13.348;2023-01-08T07:10:09;8.05;;;7.25;;
20861;SDS011;10591;52.532;13.348;2023-01-08T07:12:40;7.67;;;6.87;;
20861;SDS011;10591;52.532;13.348;2023-01-08T07:15:10;8.37;;;7.50;;
20861;SDS011;10591;52.532;13.348;2023-01-08T07:17:41;7.85;;;6.47;;
20861;SDS011;10591;52.532;13.348;2023-01-08T07:20:13;7.97;;;7.12;;
20861;SDS011;10591;52.532;13.348;2023-01-08T07:22:45;7.25;;;6.55;;
20861;SDS011;10591;52.532;13.348;2023-01-08T07:25:15;7.47;;;6.78;;
20861;SDS011;10591;52.532;13.348;2023-01-08T07:27:47;7.42;;;6.58;;
20861;SDS011;10591;52.532;13.348;2023-01-08T07:30:18;9.23;;;7.37;;
20861;SDS011;10591;52.532;13.348;2023-01-08T07:32:52;8.60;;;7.70;;
20861;SDS011;10591;52.532;13.348;2023-01-08T07:35:24;7.80;;;7.00;;
20861;SDS011;10591;52.532;13.348;2023-01-08T07:37:57;8.50;;;7.30;;
20861;SDS011;10591;52.532;13.348;2023-01-08T07:40:28;8.13;;;7.08;;
20861;SDS011;10591;52.532;13.348;2023-01-08T07:43:00;8.13;;;6.80;;
20861;SDS011;10591;52.532;13.348;2023-01-08T07:45:32;8.78;;;7.45;;
20861;SDS011;10591;52.532;13.348;2023-01-08T07:48:06;8.05;;;6.17;;
20861;SDS011;10591;52.532;13.348;2023-01-08T07:50:38;8.33;;;7.27;;
20861;SDS011;10591;52.532;13.348;2023-01-08T07:53:12;8.33;;;7.12;;
20861;SDS011;10591;52.532;13.348;2023-01-08T07:55:45;8.88;;;6.80;;
20861;SDS011;10591;52.532;13.348;2023-01-08T07:58:17;7.97;;;7.17;;
20861;SDS011;10591;52.532;13.348;2023-01-08T08:00:51;7.78;;;6.95;;
20861;SDS011;10591;52.532;13.348;2023-01-08T08:03:24;7.60;;;6.80;;
20861;SDS011;10591;52.532;13.348;2023-01-08T08:05:59;7.60;;;6.80;;
20861;SDS011;10591;52.532;13.348;2023-01-08T08:08:30;7.47;;;6.72;;
20861;SDS011;10591;52.532;13.348;2023-01-08T08:11:01;7.12;;;6.40;;
20861;SDS011;10591;52.532;13.348;2023-01-08T08:13:31;6.90;;;6.30;;
20861;SDS011;10591;52.532;13.348;2023-01-08T08:16:03;7.47;;;6.65;;
20861;SDS011;10591;52.532;13.348;2023-01-08T08:18:38;7.08;;;6.37;;
20861;SDS011;10591;52.532;13.348;2023-01-08T08:21:10;8.03;;;6.95;;
20861;SDS011;10591;52.532;13.348;2023-01-08T08:23:42;8.17;;;7.17;;
20861;SDS011;10591;52.532;13.348;2023-01-08T08:26:13;8.03;;;7.17;;
20861;SDS011;10591;52.532;13.348;2023-01-08T08:28:44;7.70;;;7.00;;
20861;SDS011;10591;52.532;13.348;2023-01-08T08:31:14;7.15;;;6.45;;
20861;SDS011;10591;52.532;13.348;2023-01-08T08:33:46;8.60;;;7.17;;
20861;SDS011;10591;52.532;13.348;2023-01-08T08:36:16;7.50;;;6.50;;
20861;SDS011;10591;52.532;13.348;2023-01-08T08:38:48;7.08;;;6.37;;
20861;SDS011;10591;52.532;13.348;2023-01-08T08:41:20;8.35;;;6.50;;
20861;SDS011;10591;52.532;13.348;2023-01-08T08:43:56;8.18;;;6.30;;
20861;SDS011;10591;52.532;13.348;2023-01-08T08:46:27;7.17;;;6.47;;
20861;SDS011;10591;52.532;13.348;2023-01-08T08:49:00;7.12;;;6.42;;
20861;SDS011;10591;52.532;13.348;2023-01-08T08:51:35;7.13;;;6.43;;
20861;SDS011;10591;52.532;13.348;2023-01-08T08:54:06;7.60;;;6.58;;
20861;SDS011;10591;52.532;13.348;2023-01-08T08:56:41;7.10;;;6.40;;
20861;SDS011;10591;52.532;13.348;2023-01-08T08:59:12;7.07;;;6.37;;
20861;SDS011;10591;52.532;13.348;2023-01-08T09:01:43;8.73;;;7.08;;
20861;SDS011;10591;52.532;13.348;2023-01-08T09:04:16;7.87;;;6.62;;
20861;SDS011;10591;52.532;13.348;2023-01-08T09:06:48;10.38;;;7.00;;
20861;SDS011;10591;52.532;13.348;2023-01-08T09:09:20;7.90;;;7.10;;
20861;SDS011;10591;52.532;13.348;2023-01-08T09:11:55;6.90;;;6.20;;
20861;SDS011;10591;52.532;13.348;2023-01-08T09:14:27;6.80;;;6.10;;
20861;SDS011;10591;52.532;13.348;2023-01-08T09:16:58;8.35;;;6.75;;
20861;SDS011;10591;52.532;13.348;2023-01-08T09:19:33;7.83;;;6.87;;
20861;SDS011;10591;52.532;13.348;2023-01-08T09:22:08;7.55;;;6.65;;
20861;SDS011;10591;52.532;13.348;2023-01-08T09:24:40;7.55;;;6.78;;
20861;SDS011;10591;52.532;13.348;2023-01-08T09:27:11;7.40;;;6.60;;
20861;SDS011;10591;52.532;13.348;2023-01-08T09:29:45;8.53;;;7.17;;
20861;SDS011;10591;52.532;13.348;2023-01-08T09:32:17;8.13;;;7.40;;
20861;SDS011;10591;52.532;13.348;2023-01-08T09:34:48;7.75;;;6.95;;
20861;SDS011;10591;52.532;13.348;2023-01-08T09:37:20;7.78;;;6.30;;
20861;SDS011;10591;52.532;13.348;2023-01-08T09:39:51;8.50;;;6.45;;
20861;SDS011;10591;52.532;13.348;2023-01-08T09:42:26;7.85;;;7.15;;
20861;SDS011;10591;52.532;13.348;2023-01-08T09:45:03;7.35;;;6.22;;
20861;SDS011;10591;52.532;13.348;2023-01-08T09:47:37;7.85;;;7.05;;
20861;SDS011;10591;52.532;13.348;2023-01-08T09:50:11;7.20;;;6.17;;
20861;SDS011;10591;52.532;13.348;2023-01-08T09:52:43;7.13;;;6.43;;
20861;SDS011;10591;52.532;13.348;2023-01-08T09:55:14;6.90;;;6.30;;
20861;SDS011;10591;52.532;13.348;2023-01-08T09:57:46;8.55;;;6.58;;
20861;SDS011;10591;52.532;13.348;2023-01-08T10:00:20;6.17;;;5.58;;
20861;SDS011;10591;52.532;13.348;2023-01-08T10:02:52;7.37;;;5.95;;
20861;SDS011;10591;52.532;13.348;2023-01-08T10:05:25;8.33;;;5.60;;
20861;SDS011;10591;52.532;13.348;2023-01-08T10:08:02;6.30;;;5.70;;
20861;SDS011;10591;52.532;13.348;2023-01-08T10:10:34;6.30;;;5.58;;
20861;SDS011;10591;52.532;13.348;2023-01-08T10:13:08;6.37;;;5.78;;
20861;SDS011;10591;52.532;13.348;2023-01-08T10:15:41;6.22;;;5.62;;
20861;SDS011;10591;52.532;13.348;2023-01-08T10:18:13;6.53;;;5.92;;
20861;SDS011;10591;52.532;13.348;2023-01-08T10:20:49;6.67;;;5.65;;
20861;SDS011;10591;52.532;13.348;2023-01-08T10:23:22;6.95;;;5.50;;
20861;SDS011;10591;52.532;13.348;2023-01-08T10:25:54;7.22;;;6.28;;
20861;SDS011;10591;52.532;13.348;2023-01-08T10:28:29;7.60;;;6.35;;
20861;SDS011;10591;52.532;13.348;2023-01-08T10:31:13;7.45;;;6.72;;
20861;SDS011;10591;52.532;13.348;2023-01-08T10:33:46;6.85;;;6.12;;
20861;SDS011;10591;52.532;13.348;2023-01-08T10:36:22;6.45;;;5.85;;
20861;SDS011;10591;52.532;13.348;2023-01-08T10:38:58;6.75;;;6.08;;
20861;SDS011;10591;52.532;13.348;2023-01-08T10:41:36;7.30;;;6.23;;
20861;SDS011;10591;52.532;13.348;2023-01-08T10:44:13;6.90;;;5.90;;
20861;SDS011;10591;52.532;13.348;2023-01-08T10:46:47;7.08;;;6.30;;
20861;SDS011;10591;52.532;13.348;2023-01-08T10:49:33;6.45;;;5.85;;
20861;SDS011;10591;52.532;13.348;2023-01-08T10:52:23;7.35;;;6.25;;
20861;SDS011;10591;52.532;13.348;2023-01-08T10:55:12;8.15;;;6.92;;
20861;SDS011;10591;52.532;13.348;2023-01-08T10:57:59;8.37;;;6.43;;
20861;SDS011;10591;52.532;13.348;2023-01-08T11:00:32;7.07;;;6.27;;
20861;SDS011;10591;52.532;13.348;2023-01-08T11:03:27;7.42;;;6.58;;
20861;SDS011;10591;52.532;13.348;2023-01-08T11:05:59;9.33;;;7.37;;
20861;SDS011;10591;52.532;13.348;2023-01-08T11:08:54;12.88;;;8.13;;
20861;SDS011;10591;52.532;13.348;2023-01-08T11:11:33;10.43;;;7.75;;
20861;SDS011;10591;52.532;13.348;2023-01-08T11:14:11;8.03;;;6.97;;
20861;SDS011;10591;52.532;13.348;2023-01-08T11:16:48;8.10;;;7.03;;
20861;SDS011;10591;52.532;13.348;2023-01-08T11:19:23;8.33;;;7.12;;
20861;SDS011;10591;52.532;13.348;2023-01-08T11:22:01;8.73;;;6.70;;
20861;SDS011;10591;52.532;13.348;2023-01-08T11:24:35;9.23;;;7.50;;
20861;SDS011;10591;52.532;13.348;2023-01-08T11:30:04;11.35;;;7.67;;
20861;SDS011;10591;52.532;13.348;2023-01-08T11:35:24;7.95;;;7.15;;
20861;SDS011;10591;52.532;13.348;2023-01-08T11:37:59;8.23;;;7.37;;
20861;SDS011;10591;52.532;13.348;2023-01-08T11:40:51;11.85;;;8.35;;
20861;SDS011;10591;52.532;13.348;2023-01-08T11:43:30;14.35;;;9.60;;
20861;SDS011;10591;52.532;13.348;2023-01-08T11:46:12;9.93;;;7.00;;
20861;SDS011;10591;52.532;13.348;2023-01-08T11:55:11;9.50;;;7.78;;
20861;SDS011;10591;52.532;13.348;2023-01-08T12:03:39;7.95;;;7.15;;
20861;SDS011;10591;52.532;13.348;2023-01-08T12:14:24;9.68;;;7.33;;
20861;SDS011;10591;52.532;13.348;2023-01-08T12:17:06;9.95;;;7.85;;
20861;SDS011;10591;52.532;13.348;2023-01-08T12:25:43;9.28;;;7.47;;
20861;SDS011;10591;52.532;13.348;2023-01-08T12:28:39;7.78;;;6.87;;
20861;SDS011;10591;52.532;13.348;2023-01-08T12:31:47;8.08;;;7.28;;
20861;SDS011;10591;52.532;13.348;2023-01-08T12:34:05;9.55;;;7.53;;
20861;SDS011;10591;52.532;13.348;2023-01-08T12:36:39;8.45;;;7.40;;
20861;SDS011;10591;52.532;13.348;2023-01-08T12:42:06;8.55;;;7.17;;
20861;SDS011;10591;52.532;13.348;2023-01-08T12:44:41;7.58;;;6.78;;
20861;SDS011;10591;52.532;13.348;2023-01-08T12:47:15;8.03;;;7.22;;
20861;SDS011;10591;52.532;13.348;2023-01-08T12:50:00;8.35;;;7.53;;
20861;SDS011;10591;52.532;13.348;2023-01-08T12:52:45;8.18;;;6.85;;
20861;SDS011;10591;52.532;13.348;2023-01-08T12:55:31;7.78;;;6.87;;
20861;SDS011;10591;52.532;13.348;2023-01-08T12:58:16;7.97;;;6.47;;
20861;SDS011;10591;52.532;13.348;2023-01-08T13:01:10;8.70;;;6.72;;
20861;SDS011;10591;52.532;13.348;2023-01-08T13:03:53;8.10;;;6.60;;
20861;SDS011;10591;52.532;13.348;2023-01-08T13:06:26;8.03;;;6.90;;
20861;SDS011;10591;52.532;13.348;2023-01-08T13:08:59;8.00;;;6.58;;
20861;SDS011;10591;52.532;13.348;2023-01-08T13:11:33;7.72;;;6.80;;
20861;SDS011;10591;52.532;13.348;2023-01-08T13:14:08;8.35;;;6.58;;
20861;SDS011;10591;52.532;13.348;2023-01-08T13:16:47;7.80;;;7.00;;
20861;SDS011;10591;52.532;13.348;2023-01-08T13:19:23;11.00;;;8.63;;
20861;SDS011;10591;52.532;13.348;2023-01-08T13:21:56;11.35;;;8.43;;
20861;SDS011;10591;52.532;13.348;2023-01-08T13:24:33;9.43;;;8.20;;
20861;SDS011;10591;52.532;13.348;2023-01-08T13:29:49;9.88;;;7.97;;
20861;SDS011;10591;52.532;13.348;2023-01-08T13:35:18;9.43;;;7.12;;
20861;SDS011;10591;52.532;13.348;2023-01-08T13:37:52;9.43;;;7.28;;
20861;SDS011;10591;52.532;13.348;2023-01-08T13:40:35;9.18;;;7.67;;
20861;SDS011;10591;52.532;13.348;2023-01-08T13:43:23;10.48;;;8.28;;
20861;SDS011;10591;52.532;13.348;2023-01-08T13:48:37;9.13;;;8.23;;
20861;SDS011;10591;52.532;13.348;2023-01-08T13:56:45;9.73;;;8.05;;
20861;SDS011;10591;52.532;13.348;2023-01-08T14:02:02;11.10;;;8.65;;
20861;SDS011;10591;52.532;13.348;2023-01-08T14:04:35;10.82;;;8.28;;
20861;SDS011;10591;52.532;13.348;2023-01-08T14:07:11;12.47;;;9.65;;
20861;SDS011;10591;52.532;13.348;2023-01-08T14:09:44;11.93;;;9.18;;
20861;SDS011;10591;52.532;13.348;2023-01-08T14:12:23;12.70;;;9.35;;
20861;SDS011;10591;52.532;13.348;2023-01-08T14:14:52;12.57;;;9.60;;
20861;SDS011;10591;52.532;13.348;2023-01-08T14:17:29;10.85;;;8.98;;
20861;SDS011;10591;52.532;13.348;2023-01-08T14:20:00;10.72;;;9.63;;
20861;SDS011;10591;52.532;13.348;2023-01-08T14:22:39;16.82;;;12.28;;
20861;SDS011;10591;52.532;13.348;2023-01-08T14:25:13;12.68;;;10.30;;
20861;SDS011;10591;52.532;13.348;2023-01-08T14:27:59;10.88;;;9.28;;
20861;SDS011;10591;52.532;13.348;2023-01-08T14:30:33;10.80;;;9.08;;
20861;SDS011;10591;52.532;13.348;2023-01-08T14:33:09;10.05;;;8.63;;
20861;SDS011;10591;52.532;13.348;2023-01-08T14:35:42;10.63;;;9.45;;
20861;SDS011;10591;52.532;13.348;2023-01-08T14:38:14;11.05;;;8.70;;
20861;SDS011;10591;52.532;13.348;2023-01-08T14:41:06;11.18;;;9.00;;
20861;SDS011;10591;52.532;13.348;2023-01-08T14:43:45;10.98;;;9.08;;
20861;SDS011;10591;52.532;13.348;2023-01-08T14:48:53;10.30;;;8.98;;
20861;SDS011;10591;52.532;13.348;2023-01-08T14:51:26;16.20;;;9.63;;
20861;SDS011;10591;52.532;13.348;2023-01-08T14:54:00;10.10;;;8.70;;
20861;SDS011;10591;52.532;13.348;2023-01-08T14:56:33;10.90;;;9.03;;
20861;SDS011;10591;52.532;13.348;2023-01-08T14:59:08;14.40;;;9.48;;
20861;SDS011;10591;52.532;13.348;2023-01-08T15:01:39;10.58;;;8.73;;
20861;SDS011;10591;52.532;13.348;2023-01-08T15:04:18;13.38;;;10.18;;
20861;SDS011;10591;52.532;13.348;2023-01-08T15:06:50;11.57;;;9.63;;
20861;SDS011;10591;52.532;13.348;2023-01-08T15:09:25;11.20;;;9.40;;
20861;SDS011;10591;52.532;13.348;2023-01-08T15:12:02;11.43;;;9.20;;
20861;SDS011;10591;52.532;13.348;2023-01-08T15:14:35;12.20;;;9.70;;
20861;SDS011;10591;52.532;13.348;2023-01-08T15:17:10;11.83;;;9.37;;
20861;SDS011;10591;52.532;13.348;2023-01-08T15:19:44;12.00;;;9.85;;
20861;SDS011;10591;52.532;13.348;2023-01-08T15:22:24;12.23;;;9.40;;
20861;SDS011;10591;52.532;13.348;2023-01-08T15:25:06;12.20;;;9.50;;
20861;SDS011;10591;52.532;13.348;2023-01-08T15:27:39;12.05;;;9.60;;
20861;SDS011;10591;52.532;13.348;2023-01-08T15:30:29;12.53;;;9.90;;
20861;SDS011;10591;52.532;13.348;2023-01-08T15:33:20;12.73;;;9.90;;
20861;SDS011;10591;52.532;13.348;2023-01-08T15:35:53;11.65;;;9.30;;
20861;SDS011;10591;52.532;13.348;2023-01-08T15:38:26;13.03;;;9.23;;
20861;SDS011;10591;52.532;13.348;2023-01-08T15:40:56;14.30;;;10.58;;
20861;SDS011;10591;52.532;13.348;2023-01-08T15:43:29;12.18;;;9.73;;
20861;SDS011;10591;52.532;13.348;2023-01-08T15:46:00;15.63;;;10.40;;
20861;SDS011;10591;52.532;13.348;2023-01-08T15:48:32;13.58;;;10.88;;
20861;SDS011;10591;52.532;13.348;2023-01-08T15:51:04;12.60;;;10.33;;
20861;SDS011;10591;52.532;13.348;2023-01-08T15:53:37;13.83;;;10.30;;
20861;SDS011;10591;52.532;13.348;2023-01-08T15:56:08;13.98;;;11.03;;
20861;SDS011;10591;52.532;13.348;2023-01-08T15:58:41;15.23;;;10.90;;
20861;SDS011;10591;52.532;13.348;2023-01-08T16:01:13;15.25;;;11.38;;
20861;SDS011;10591;52.532;13.348;2023-01-08T16:03:44;15.15;;;11.25;;
20861;SDS011;10591;52.532;13.348;2023-01-08T16:06:14;14.40;;;9.98;;
20861;SDS011;10591;52.532;13.348;2023-01-08T16:08:45;15.95;;;11.50;;
20861;SDS011;10591;52.532;13.348;2023-01-08T16:11:17;12.63;;;10.18;;
20861;SDS011;10591;52.532;13.348;2023-01-08T16:13:48;11.55;;;10.05;;
20861;SDS011;10591;52.532;13.348;2023-01-08T16:16:21;14.43;;;10.50;;